sensor_id;sensor_type;location;lat;lon;timestamp;P1;durP1;ratioP1;P2;durP2;ratioP2
19087;SDS011;9676;50.916;13.352;2023-09-19T00:00:59;9.67;;;8.87;;
19087;SDS011;9676;50.916;13.352;2023-09-19T00:03:53;9.67;;;8.77;;
19087;SDS011;9676;50.916;13.352;2023-09-19T00:06:43;9.80;;;8.93;;
19087;SDS011;9676;50.916;13.352;2023-09-19T00:09:32;9.80;;;8.90;;
19087;SDS011;9676;50.916;13.352;2023-09-19T00:12:24;9.70;;;8.80;;
19087;SDS011;9676;50.916;13.352;2023-09-19T00:15:15;9.50;;;8.70;;
19087;SDS011;9676;50.916;13.352;2023-09-19T00:18:05;9.80;;;8.90;;
19087;SDS011;9676;50.916;13.352;2023-09-19T00:20:58;9.57;;;8.63;;
19087;SDS011;9676;50.916;13.352;2023-09-19T00:23:47;9.77;;;8.83;;
19087;SDS011;9676;50.916;13.352;2023-09-19T00:26:38;9.40;;;8.60;;
19087;SDS011;9676;50.916;13.352;2023-09-19T00:29:28;9.50;;;8.70;;
19087;SDS011;9676;50.916;13.352;2023-09-19T00:32:19;9.67;;;8.77;;
19087;SDS011;9676;50.916;13.352;2023-09-19T00:35:08;9.40;;;8.60;;
19087;SDS011;9676;50.916;13.352;2023-09-19T00:38:00;9.60;;;8.70;;
19087;SDS011;9676;50.916;13.352;2023-09-19T00:40:50;9.33;;;8.50;;
19087;SDS011;9676;50.916;13.352;2023-09-19T00:43:40;9.47;;;8.67;;
19087;SDS011;9676;50.916;13.352;2023-09-19T00:46:30;9.87;;;8.90;;
19087;SDS011;9676;50.916;13.352;2023-09-19T00:49:20;9.23;;;8.53;;
19087;SDS011;9676;50.916;13.352;2023-09-19T00:52:10;9.50;;;8.70;;
19087;SDS011;9676;50.916;13.352;2023-09-19T00:55:02;10.17;;;8.73;;
19087;SDS011;9676;50.916;13.352;2023-09-19T00:57:53;9.00;;;8.30;;
19087;SDS011;9676;50.916;13.352;2023-09-19T01:00:46;9.57;;;8.77;;
19087;SDS011;9676;50.916;13.352;2023-09-19T01:03:37;9.73;;;8.73;;
19087;SDS011;9676;50.916;13.352;2023-09-19T01:06:28;9.27;;;8.50;;
19087;SDS011;9676;50.916;13.352;2023-09-19T01:09:18;9.53;;;8.70;;
19087;SDS011;9676;50.916;13.352;2023-09-19T01:12:10;9.97;;;8.97;;
19087;SDS011;9676;50.916;13.352;2023-09-19T01:15:08;9.50;;;8.63;;
19087;SDS011;9676;50.916;13.352;2023-09-19T01:18:12;9.40;;;8.60;;
19087;SDS011;9676;50.916;13.352;2023-09-19T01:21:11;9.60;;;8.80;;
19087;SDS011;9676;50.916;13.352;2023-09-19T01:24:10;9.47;;;8.60;;
19087;SDS011;9676;50.916;13.352;2023-09-19T01:27:58;9.40;;;8.60;;
19087;SDS011;9676;50.916;13.352;2023-09-19T01:31:09;9.43;;;8.63;;
19087;SDS011;9676;50.916;13.352;2023-09-19T01:34:00;9.60;;;8.70;;
19087;SDS011;9676;50.916;13.352;2023-09-19T01:36:53;9.77;;;8.87;;
19087;SDS011;9676;50.916;13.352;2023-09-19T01:39:43;9.40;;;8.60;;
19087;SDS011;9676;50.916;13.352;2023-09-19T01:42:35;9.07;;;8.37;;
19087;SDS011;9676;50.916;13.352;2023-09-19T01:45:33;9.40;;;8.60;;
19087;SDS011;9676;50.916;13.352;2023-09-19T01:48:34;9.30;;;8.60;;
19087;SDS011;9676;50.916;13.352;2023-09-19T01:51:31;9.57;;;8.67;;
19087;SDS011;9676;50.916;13.352;2023-09-19T01:54:26;9.30;;;8.50;;
19087;SDS011;9676;50.916;13.352;2023-09-19T01:57:22;9.30;;;8.50;;
19087;SDS011;9676;50.916;13.352;2023-09-19T02:00:20;9.67;;;8.77;;
19087;SDS011;9676;50.916;13.352;2023-09-19T02:03:13;9.37;;;8.57;;
19087;SDS011;9676;50.916;13.352;2023-09-19T02:06:05;9.60;;;8.80;;
19087;SDS011;9676;50.916;13.352;2023-09-19T02:08:58;9.60;;;8.60;;
19087;SDS011;9676;50.916;13.352;2023-09-19T02:11:48;9.07;;;8.30;;
19087;SDS011;9676;50.916;13.352;2023-09-19T02:14:37;9.50;;;8.70;;
19087;SDS011;9676;50.916;13.352;2023-09-19T02:17:26;9.63;;;8.83;;
19087;SDS011;9676;50.916;13.352;2023-09-19T02:20:16;9.30;;;8.53;;
19087;SDS011;9676;50.916;13.352;2023-09-19T02:23:09;9.33;;;8.47;;
19087;SDS011;9676;50.916;13.352;2023-09-19T02:25:59;10.03;;;8.60;;
19087;SDS011;9676;50.916;13.352;2023-09-19T02:28:49;9.60;;;8.80;;
19087;SDS011;9676;50.916;13.352;2023-09-19T02:31:38;9.17;;;8.47;;
19087;SDS011;9676;50.916;13.352;2023-09-19T02:34:28;9.30;;;8.60;;
19087;SDS011;9676;50.916;13.352;2023-09-19T02:37:17;10.20;;;8.90;;
19087;SDS011;9676;50.916;13.352;2023-09-19T02:40:09;9.47;;;8.70;;
19087;SDS011;9676;50.916;13.352;2023-09-19T02:43:06;9.53;;;8.73;;
19087;SDS011;9676;50.916;13.352;2023-09-19T02:45:56;9.10;;;8.33;;
19087;SDS011;9676;50.916;13.352;2023-09-19T02:48:45;9.30;;;8.50;;
19087;SDS011;9676;50.916;13.352;2023-09-19T02:51:35;9.20;;;8.50;;
19087;SDS011;9676;50.916;13.352;2023-09-19T02:54:24;9.40;;;8.60;;
19087;SDS011;9676;50.916;13.352;2023-09-19T02:57:15;9.73;;;8.93;;
19087;SDS011;9676;50.916;13.352;2023-09-19T03:00:07;9.17;;;8.47;;
19087;SDS011;9676;50.916;13.352;2023-09-19T03:02:59;9.97;;;8.60;;
19087;SDS011;9676;50.916;13.352;2023-09-19T03:05:49;9.33;;;8.60;;
19087;SDS011;9676;50.916;13.352;2023-09-19T03:08:42;9.40;;;8.60;;
19087;SDS011;9676;50.916;13.352;2023-09-19T03:11:32;9.60;;;8.80;;
19087;SDS011;9676;50.916;13.352;2023-09-19T03:14:23;9.50;;;8.70;;
19087;SDS011;9676;50.916;13.352;2023-09-19T03:17:13;9.50;;;8.70;;
19087;SDS011;9676;50.916;13.352;2023-09-19T03:20:03;9.50;;;8.60;;
19087;SDS011;9676;50.916;13.352;2023-09-19T03:22:56;10.80;;;8.83;;
19087;SDS011;9676;50.916;13.352;2023-09-19T03:25:46;9.37;;;8.57;;
19087;SDS011;9676;50.916;13.352;2023-09-19T03:28:36;9.50;;;8.70;;
19087;SDS011;9676;50.916;13.352;2023-09-19T03:31:27;9.30;;;8.60;;
19087;SDS011;9676;50.916;13.352;2023-09-19T03:34:18;9.60;;;8.80;;
19087;SDS011;9676;50.916;13.352;2023-09-19T03:37:08;9.70;;;8.90;;
19087;SDS011;9676;50.916;13.352;2023-09-19T03:39:57;10.33;;;9.23;;
19087;SDS011;9676;50.916;13.352;2023-09-19T03:42:52;9.87;;;8.97;;
19087;SDS011;9676;50.916;13.352;2023-09-19T03:45:42;10.20;;;9.20;;
19087;SDS011;9676;50.916;13.352;2023-09-19T03:48:34;9.97;;;9.07;;
19087;SDS011;9676;50.916;13.352;2023-09-19T03:51:23;9.90;;;8.90;;
19087;SDS011;9676;50.916;13.352;2023-09-19T03:54:13;9.83;;;8.93;;
19087;SDS011;9676;50.916;13.352;2023-09-19T03:57:04;9.70;;;8.80;;
19087;SDS011;9676;50.916;13.352;2023-09-19T03:59:54;9.77;;;8.90;;
19087;SDS011;9676;50.916;13.352;2023-09-19T04:02:43;9.97;;;9.00;;
19087;SDS011;9676;50.916;13.352;2023-09-19T04:05:35;9.77;;;8.97;;
19087;SDS011;9676;50.916;13.352;2023-09-19T04:08:24;9.63;;;8.73;;
19087;SDS011;9676;50.916;13.352;2023-09-19T04:11:14;9.60;;;8.73;;
19087;SDS011;9676;50.916;13.352;2023-09-19T04:14:06;9.40;;;8.70;;
19087;SDS011;9676;50.916;13.352;2023-09-19T04:16:55;9.60;;;8.80;;
19087;SDS011;9676;50.916;13.352;2023-09-19T04:19:45;9.77;;;8.87;;
19087;SDS011;9676;50.916;13.352;2023-09-19T04:22:36;9.50;;;8.70;;
19087;SDS011;9676;50.916;13.352;2023-09-19T04:25:26;9.70;;;8.80;;
19087;SDS011;9676;50.916;13.352;2023-09-19T04:28:16;9.60;;;8.80;;
19087;SDS011;9676;50.916;13.352;2023-09-19T04:31:05;9.70;;;8.80;;
19087;SDS011;9676;50.916;13.352;2023-09-19T04:33:59;9.83;;;8.97;;
19087;SDS011;9676;50.916;13.352;2023-09-19T04:36:52;9.70;;;8.90;;
19087;SDS011;9676;50.916;13.352;2023-09-19T04:39:42;9.40;;;8.63;;
19087;SDS011;9676;50.916;13.352;2023-09-19T04:42:33;9.70;;;8.80;;
19087;SDS011;9676;50.916;13.352;2023-09-19T04:45:22;10.03;;;9.10;;
19087;SDS011;9676;50.916;13.352;2023-09-19T04:48:12;9.30;;;8.50;;
19087;SDS011;9676;50.916;13.352;2023-09-19T04:51:01;9.53;;;8.70;;
19087;SDS011;9676;50.916;13.352;2023-09-19T04:53:51;9.80;;;8.90;;
19087;SDS011;9676;50.916;13.352;2023-09-19T04:56:42;9.50;;;8.70;;
19087;SDS011;9676;50.916;13.352;2023-09-19T04:59:31;11.70;;;8.80;;
19087;SDS011;9676;50.916;13.352;2023-09-19T05:02:21;9.93;;;9.10;;
19087;SDS011;9676;50.916;13.352;2023-09-19T05:05:10;9.57;;;8.77;;
19087;SDS011;9676;50.916;13.352;2023-09-19T05:08:04;9.60;;;8.80;;
19087;SDS011;9676;50.916;13.352;2023-09-19T05:10:54;9.97;;;9.07;;
19087;SDS011;9676;50.916;13.352;2023-09-19T05:13:45;9.60;;;8.80;;
19087;SDS011;9676;50.916;13.352;2023-09-19T05:16:35;9.80;;;9.00;;
19087;SDS011;9676;50.916;13.352;2023-09-19T05:19:24;10.20;;;9.10;;
19087;SDS011;9676;50.916;13.352;2023-09-19T05:22:13;9.47;;;8.67;;
19087;SDS011;9676;50.916;13.352;2023-09-19T05:25:03;9.90;;;8.90;;
19087;SDS011;9676;50.916;13.352;2023-09-19T05:27:54;9.77;;;8.87;;
19087;SDS011;9676;50.916;13.352;2023-09-19T05:30:46;9.77;;;8.97;;
19087;SDS011;9676;50.916;13.352;2023-09-19T05:33:36;9.63;;;8.83;;
19087;SDS011;9676;50.916;13.352;2023-09-19T05:36:26;9.70;;;8.87;;
19087;SDS011;9676;50.916;13.352;2023-09-19T05:39:17;9.53;;;8.73;;
19087;SDS011;9676;50.916;13.352;2023-09-19T05:42:06;9.30;;;8.60;;
19087;SDS011;9676;50.916;13.352;2023-09-19T05:44:56;9.90;;;9.10;;
19087;SDS011;9676;50.916;13.352;2023-09-19T05:47:48;9.80;;;8.90;;
19087;SDS011;9676;50.916;13.352;2023-09-19T05:50:38;9.70;;;8.90;;
19087;SDS011;9676;50.916;13.352;2023-09-19T05:53:28;9.60;;;8.80;;
19087;SDS011;9676;50.916;13.352;2023-09-19T05:56:17;10.10;;;9.20;;
19087;SDS011;9676;50.916;13.352;2023-09-19T05:59:07;9.63;;;8.83;;
19087;SDS011;9676;50.916;13.352;2023-09-19T06:01:56;9.10;;;8.40;;
19087;SDS011;9676;50.916;13.352;2023-09-19T06:04:48;9.50;;;8.70;;
19087;SDS011;9676;50.916;13.352;2023-09-19T06:07:40;9.60;;;8.57;;
19087;SDS011;9676;50.916;13.352;2023-09-19T06:10:29;9.90;;;8.90;;
19087;SDS011;9676;50.916;13.352;2023-09-19T06:13:19;9.40;;;8.60;;
19087;SDS011;9676;50.916;13.352;2023-09-19T06:16:09;9.67;;;8.77;;
19087;SDS011;9676;50.916;13.352;2023-09-19T06:18:58;9.50;;;8.70;;
19087;SDS011;9676;50.916;13.352;2023-09-19T06:21:49;9.80;;;9.00;;
19087;SDS011;9676;50.916;13.352;2023-09-19T06:24:39;9.63;;;8.80;;
19087;SDS011;9676;50.916;13.352;2023-09-19T06:27:28;9.50;;;8.60;;
19087;SDS011;9676;50.916;13.352;2023-09-19T06:30:18;9.40;;;8.60;;
19087;SDS011;9676;50.916;13.352;2023-09-19T06:33:08;9.23;;;8.43;;
19087;SDS011;9676;50.916;13.352;2023-09-19T06:35:59;9.53;;;8.73;;
19087;SDS011;9676;50.916;13.352;2023-09-19T06:38:50;9.50;;;8.70;;
19087;SDS011;9676;50.916;13.352;2023-09-19T06:41:39;9.30;;;8.50;;
19087;SDS011;9676;50.916;13.352;2023-09-19T06:44:30;9.37;;;8.57;;
19087;SDS011;9676;50.916;13.352;2023-09-19T06:47:20;9.83;;;8.50;;
19087;SDS011;9676;50.916;13.352;2023-09-19T06:50:09;9.67;;;8.80;;
19087;SDS011;9676;50.916;13.352;2023-09-19T06:53:01;9.77;;;8.87;;
19087;SDS011;9676;50.916;13.352;2023-09-19T06:55:52;9.77;;;8.87;;
19087;SDS011;9676;50.916;13.352;2023-09-19T06:58:41;9.57;;;8.77;;
19087;SDS011;9676;50.916;13.352;2023-09-19T07:01:31;9.30;;;8.50;;
19087;SDS011;9676;50.916;13.352;2023-09-19T07:04:21;9.80;;;8.90;;
19087;SDS011;9676;50.916;13.352;2023-09-19T07:07:10;9.53;;;8.73;;
19087;SDS011;9676;50.916;13.352;2023-09-19T07:10:01;9.50;;;8.70;;
19087;SDS011;9676;50.916;13.352;2023-09-19T07:12:55;9.40;;;8.60;;
19087;SDS011;9676;50.916;13.352;2023-09-19T07:15:46;9.50;;;8.70;;
19087;SDS011;9676;50.916;13.352;2023-09-19T07:18:37;9.90;;;9.00;;
19087;SDS011;9676;50.916;13.352;2023-09-19T07:21:27;9.83;;;8.93;;
19087;SDS011;9676;50.916;13.352;2023-09-19T07:24:17;9.40;;;8.60;;
19087;SDS011;9676;50.916;13.352;2023-09-19T07:27:06;9.40;;;8.50;;
19087;SDS011;9676;50.916;13.352;2023-09-19T07:29:57;9.40;;;8.40;;
19087;SDS011;9676;50.916;13.352;2023-09-19T07:32:47;9.43;;;8.33;;
19087;SDS011;9676;50.916;13.352;2023-09-19T07:35:36;9.70;;;8.70;;
19087;SDS011;9676;50.916;13.352;2023-09-19T07:38:28;9.20;;;8.40;;
19087;SDS011;9676;50.916;13.352;2023-09-19T07:41:17;9.40;;;8.60;;
19087;SDS011;9676;50.916;13.352;2023-09-19T07:44:06;9.40;;;8.50;;
19087;SDS011;9676;50.916;13.352;2023-09-19T07:46:57;9.20;;;8.30;;
19087;SDS011;9676;50.916;13.352;2023-09-19T07:49:50;9.63;;;8.73;;
19087;SDS011;9676;50.916;13.352;2023-09-19T07:52:40;9.70;;;8.70;;
19087;SDS011;9676;50.916;13.352;2023-09-19T07:55:30;9.30;;;8.40;;
19087;SDS011;9676;50.916;13.352;2023-09-19T07:58:21;9.27;;;8.47;;
19087;SDS011;9676;50.916;13.352;2023-09-19T08:01:11;9.47;;;8.57;;
19087;SDS011;9676;50.916;13.352;2023-09-19T08:04:02;9.60;;;8.70;;
19087;SDS011;9676;50.916;13.352;2023-09-19T08:06:52;9.60;;;8.60;;
19087;SDS011;9676;50.916;13.352;2023-09-19T08:09:43;10.20;;;8.50;;
19087;SDS011;9676;50.916;13.352;2023-09-19T08:12:35;9.20;;;8.40;;
19087;SDS011;9676;50.916;13.352;2023-09-19T08:15:26;9.03;;;8.23;;
19087;SDS011;9676;50.916;13.352;2023-09-19T08:18:15;9.20;;;8.40;;
19087;SDS011;9676;50.916;13.352;2023-09-19T08:21:06;13.60;;;8.30;;
19087;SDS011;9676;50.916;13.352;2023-09-19T08:23:58;11.10;;;8.57;;
19087;SDS011;9676;50.916;13.352;2023-09-19T08:26:49;9.17;;;8.27;;
19087;SDS011;9676;50.916;13.352;2023-09-19T08:29:39;8.87;;;8.07;;
19087;SDS011;9676;50.916;13.352;2023-09-19T08:32:29;8.63;;;7.93;;
19087;SDS011;9676;50.916;13.352;2023-09-19T08:35:19;16.47;;;8.87;;
19087;SDS011;9676;50.916;13.352;2023-09-19T08:38:10;9.63;;;8.30;;
19087;SDS011;9676;50.916;13.352;2023-09-19T08:41:05;9.30;;;8.30;;
19087;SDS011;9676;50.916;13.352;2023-09-19T08:43:58;8.90;;;8.10;;
19087;SDS011;9676;50.916;13.352;2023-09-19T08:46:50;9.40;;;8.50;;
19087;SDS011;9676;50.916;13.352;2023-09-19T08:49:49;9.03;;;8.20;;
19087;SDS011;9676;50.916;13.352;2023-09-19T08:52:51;9.20;;;8.40;;
19087;SDS011;9676;50.916;13.352;2023-09-19T08:55:45;9.30;;;8.50;;
19087;SDS011;9676;50.916;13.352;2023-09-19T08:58:39;9.20;;;8.40;;
19087;SDS011;9676;50.916;13.352;2023-09-19T09:01:35;9.10;;;8.30;;
19087;SDS011;9676;50.916;13.352;2023-09-19T09:04:29;8.97;;;8.17;;
19087;SDS011;9676;50.916;13.352;2023-09-19T09:07:18;9.40;;;8.50;;
19087;SDS011;9676;50.916;13.352;2023-09-19T09:10:09;8.73;;;7.93;;
19087;SDS011;9676;50.916;13.352;2023-09-19T09:13:00;8.70;;;7.80;;
19087;SDS011;9676;50.916;13.352;2023-09-19T09:15:52;8.60;;;7.90;;
19087;SDS011;9676;50.916;13.352;2023-09-19T09:18:41;8.60;;;7.80;;
19087;SDS011;9676;50.916;13.352;2023-09-19T09:21:31;8.70;;;7.90;;
19087;SDS011;9676;50.916;13.352;2023-09-19T09:24:26;8.77;;;8.03;;
19087;SDS011;9676;50.916;13.352;2023-09-19T09:27:17;9.10;;;8.30;;
19087;SDS011;9676;50.916;13.352;2023-09-19T09:30:08;8.90;;;8.10;;
19087;SDS011;9676;50.916;13.352;2023-09-19T09:33:09;9.50;;;7.83;;
19087;SDS011;9676;50.916;13.352;2023-09-19T09:36:00;8.50;;;7.80;;
19087;SDS011;9676;50.916;13.352;2023-09-19T09:38:52;8.87;;;8.10;;
19087;SDS011;9676;50.916;13.352;2023-09-19T09:41:42;9.70;;;8.80;;
19087;SDS011;9676;50.916;13.352;2023-09-19T09:44:33;11.20;;;8.50;;
19087;SDS011;9676;50.916;13.352;2023-09-19T09:47:34;8.83;;;8.03;;
19087;SDS011;9676;50.916;13.352;2023-09-19T09:50:30;9.20;;;8.30;;
19087;SDS011;9676;50.916;13.352;2023-09-19T09:53:32;8.87;;;8.00;;
19087;SDS011;9676;50.916;13.352;2023-09-19T09:56:21;9.00;;;8.20;;
19087;SDS011;9676;50.916;13.352;2023-09-19T09:59:12;8.40;;;7.70;;
19087;SDS011;9676;50.916;13.352;2023-09-19T10:02:05;8.60;;;7.80;;
19087;SDS011;9676;50.916;13.352;2023-09-19T10:04:56;8.43;;;7.73;;
19087;SDS011;9676;50.916;13.352;2023-09-19T10:08:10;8.50;;;7.70;;
19087;SDS011;9676;50.916;13.352;2023-09-19T10:11:15;8.40;;;7.70;;
19087;SDS011;9676;50.916;13.352;2023-09-19T10:14:06;8.13;;;7.50;;
19087;SDS011;9676;50.916;13.352;2023-09-19T10:16:58;8.50;;;7.90;;
19087;SDS011;9676;50.916;13.352;2023-09-19T10:19:53;8.75;;;8.05;;
19087;SDS011;9676;50.916;13.352;2023-09-19T10:22:46;8.07;;;7.47;;
19087;SDS011;9676;50.916;13.352;2023-09-19T10:25:44;9.57;;;7.50;;
19087;SDS011;9676;50.916;13.352;2023-09-19T10:28:34;8.20;;;7.60;;
19087;SDS011;9676;50.916;13.352;2023-09-19T10:31:26;8.60;;;7.47;;
19087;SDS011;9676;50.916;13.352;2023-09-19T10:34:17;12.80;;;7.70;;
19087;SDS011;9676;50.916;13.352;2023-09-19T10:37:08;8.15;;;7.55;;
19087;SDS011;9676;50.916;13.352;2023-09-19T10:40:02;8.70;;;8.00;;
19087;SDS011;9676;50.916;13.352;2023-09-19T10:42:59;8.37;;;7.57;;
19087;SDS011;9676;50.916;13.352;2023-09-19T10:45:52;8.50;;;7.80;;
19087;SDS011;9676;50.916;13.352;2023-09-19T10:48:51;8.90;;;8.20;;
19087;SDS011;9676;50.916;13.352;2023-09-19T10:51:42;8.80;;;8.10;;
19087;SDS011;9676;50.916;13.352;2023-09-19T10:54:35;10.30;;;8.50;;
19087;SDS011;9676;50.916;13.352;2023-09-19T10:57:26;9.20;;;8.40;;
19087;SDS011;9676;50.916;13.352;2023-09-19T11:00:16;9.07;;;8.27;;
19087;SDS011;9676;50.916;13.352;2023-09-19T11:03:18;8.77;;;8.00;;
19087;SDS011;9676;50.916;13.352;2023-09-19T11:06:14;8.80;;;8.00;;
19087;SDS011;9676;50.916;13.352;2023-09-19T11:09:06;9.00;;;8.00;;
19087;SDS011;9676;50.916;13.352;2023-09-19T11:12:10;8.80;;;8.10;;
19087;SDS011;9676;50.916;13.352;2023-09-19T11:15:00;10.33;;;8.23;;
19087;SDS011;9676;50.916;13.352;2023-09-19T11:17:52;10.10;;;8.00;;
19087;SDS011;9676;50.916;13.352;2023-09-19T11:20:42;9.03;;;8.13;;
19087;SDS011;9676;50.916;13.352;2023-09-19T11:23:30;10.10;;;8.30;;
19087;SDS011;9676;50.916;13.352;2023-09-19T11:26:39;9.13;;;8.33;;
19087;SDS011;9676;50.916;13.352;2023-09-19T11:29:36;9.30;;;8.50;;
19087;SDS011;9676;50.916;13.352;2023-09-19T11:36:08;9.20;;;8.30;;
19087;SDS011;9676;50.916;13.352;2023-09-19T11:39:02;9.40;;;8.50;;
19087;SDS011;9676;50.916;13.352;2023-09-19T11:42:02;9.00;;;8.20;;
19087;SDS011;9676;50.916;13.352;2023-09-19T11:48:55;9.00;;;8.20;;
19087;SDS011;9676;50.916;13.352;2023-09-19T11:51:55;24.17;;;9.37;;
19087;SDS011;9676;50.916;13.352;2023-09-19T11:54:46;9.80;;;8.80;;
19087;SDS011;9676;50.916;13.352;2023-09-19T11:57:39;9.40;;;8.50;;
19087;SDS011;9676;50.916;13.352;2023-09-19T12:00:29;9.50;;;8.60;;
19087;SDS011;9676;50.916;13.352;2023-09-19T12:03:22;9.30;;;8.30;;
19087;SDS011;9676;50.916;13.352;2023-09-19T12:06:12;9.33;;;8.43;;
19087;SDS011;9676;50.916;13.352;2023-09-19T12:09:03;10.60;;;8.57;;
19087;SDS011;9676;50.916;13.352;2023-09-19T12:11:57;9.03;;;8.23;;
19087;SDS011;9676;50.916;13.352;2023-09-19T12:14:47;12.87;;;8.30;;
19087;SDS011;9676;50.916;13.352;2023-09-19T12:17:37;9.07;;;8.27;;
19087;SDS011;9676;50.916;13.352;2023-09-19T12:20:43;13.60;;;8.70;;
19087;SDS011;9676;50.916;13.352;2023-09-19T12:23:37;9.43;;;8.57;;
19087;SDS011;9676;50.916;13.352;2023-09-19T12:26:28;9.93;;;8.63;;
19087;SDS011;9676;50.916;13.352;2023-09-19T12:29:21;9.50;;;8.60;;
19087;SDS011;9676;50.916;13.352;2023-09-19T12:32:11;9.20;;;8.40;;
19087;SDS011;9676;50.916;13.352;2023-09-19T12:35:04;9.43;;;8.53;;
19087;SDS011;9676;50.916;13.352;2023-09-19T12:37:59;9.57;;;8.70;;
19087;SDS011;9676;50.916;13.352;2023-09-19T12:40:51;9.50;;;8.60;;
19087;SDS011;9676;50.916;13.352;2023-09-19T12:43:41;9.60;;;8.70;;
19087;SDS011;9676;50.916;13.352;2023-09-19T12:46:31;9.20;;;8.30;;
19087;SDS011;9676;50.916;13.352;2023-09-19T12:49:20;9.73;;;8.83;;
19087;SDS011;9676;50.916;13.352;2023-09-19T12:52:10;9.43;;;8.53;;
19087;SDS011;9676;50.916;13.352;2023-09-19T12:55:01;9.23;;;8.33;;
19087;SDS011;9676;50.916;13.352;2023-09-19T12:57:59;9.50;;;8.60;;
19087;SDS011;9676;50.916;13.352;2023-09-19T13:00:57;9.50;;;8.60;;
19087;SDS011;9676;50.916;13.352;2023-09-19T13:03:50;9.40;;;8.60;;
19087;SDS011;9676;50.916;13.352;2023-09-19T13:07:02;9.50;;;8.60;;
19087;SDS011;9676;50.916;13.352;2023-09-19T13:10:03;9.33;;;8.43;;
19087;SDS011;9676;50.916;13.352;2023-09-19T13:12:56;9.93;;;8.93;;
19087;SDS011;9676;50.916;13.352;2023-09-19T13:16:15;16.37;;;9.00;;
19087;SDS011;9676;50.916;13.352;2023-09-19T13:19:09;10.10;;;8.73;;
19087;SDS011;9676;50.916;13.352;2023-09-19T13:22:00;12.77;;;8.60;;
19087;SDS011;9676;50.916;13.352;2023-09-19T13:24:50;9.70;;;8.80;;
19087;SDS011;9676;50.916;13.352;2023-09-19T13:27:41;9.63;;;8.73;;
19087;SDS011;9676;50.916;13.352;2023-09-19T13:30:32;9.93;;;9.03;;
19087;SDS011;9676;50.916;13.352;2023-09-19T13:33:29;10.47;;;9.37;;
19087;SDS011;9676;50.916;13.352;2023-09-19T13:36:20;10.10;;;9.10;;
19087;SDS011;9676;50.916;13.352;2023-09-19T13:39:09;10.13;;;9.00;;
19087;SDS011;9676;50.916;13.352;2023-09-19T13:42:00;9.67;;;8.77;;
19087;SDS011;9676;50.916;13.352;2023-09-19T13:44:51;9.90;;;9.00;;
19087;SDS011;9676;50.916;13.352;2023-09-19T13:47:41;9.80;;;8.80;;
19087;SDS011;9676;50.916;13.352;2023-09-19T13:50:30;10.10;;;9.10;;
19087;SDS011;9676;50.916;13.352;2023-09-19T13:53:20;9.80;;;8.90;;
19087;SDS011;9676;50.916;13.352;2023-09-19T13:56:10;10.23;;;9.17;;
19087;SDS011;9676;50.916;13.352;2023-09-19T13:58:59;10.23;;;9.23;;
19087;SDS011;9676;50.916;13.352;2023-09-19T14:01:50;9.90;;;9.00;;
19087;SDS011;9676;50.916;13.352;2023-09-19T14:04:40;10.23;;;9.13;;
19087;SDS011;9676;50.916;13.352;2023-09-19T14:07:30;10.23;;;9.33;;
19087;SDS011;9676;50.916;13.352;2023-09-19T14:10:19;10.07;;;9.17;;
19087;SDS011;9676;50.916;13.352;2023-09-19T14:13:09;10.17;;;9.20;;
19087;SDS011;9676;50.916;13.352;2023-09-19T14:16:02;9.90;;;9.00;;
19087;SDS011;9676;50.916;13.352;2023-09-19T14:18:54;10.20;;;9.20;;
19087;SDS011;9676;50.916;13.352;2023-09-19T14:21:44;9.93;;;9.03;;
19087;SDS011;9676;50.916;13.352;2023-09-19T14:24:33;10.20;;;9.20;;
19087;SDS011;9676;50.916;13.352;2023-09-19T14:27:23;10.63;;;9.17;;
19087;SDS011;9676;50.916;13.352;2023-09-19T14:30:13;10.10;;;9.10;;
19087;SDS011;9676;50.916;13.352;2023-09-19T14:33:03;10.30;;;9.00;;
19087;SDS011;9676;50.916;13.352;2023-09-19T14:35:55;10.50;;;9.40;;
19087;SDS011;9676;50.916;13.352;2023-09-19T14:38:47;10.40;;;9.40;;
19087;SDS011;9676;50.916;13.352;2023-09-19T14:41:38;10.10;;;9.10;;
19087;SDS011;9676;50.916;13.352;2023-09-19T14:44:27;9.60;;;8.77;;
19087;SDS011;9676;50.916;13.352;2023-09-19T14:47:17;9.93;;;9.03;;
19087;SDS011;9676;50.916;13.352;2023-09-19T14:50:06;10.20;;;9.20;;
19087;SDS011;9676;50.916;13.352;2023-09-19T14:52:58;10.90;;;9.20;;
19087;SDS011;9676;50.916;13.352;2023-09-19T14:55:49;9.87;;;8.93;;
19087;SDS011;9676;50.916;13.352;2023-09-19T14:58:39;10.17;;;9.17;;
19087;SDS011;9676;50.916;13.352;2023-09-19T15:01:30;9.80;;;8.90;;
19087;SDS011;9676;50.916;13.352;2023-09-19T15:04:20;9.93;;;8.93;;
19087;SDS011;9676;50.916;13.352;2023-09-19T15:07:09;9.90;;;8.90;;
19087;SDS011;9676;50.916;13.352;2023-09-19T15:10:00;10.90;;;9.80;;
19087;SDS011;9676;50.916;13.352;2023-09-19T15:12:50;10.13;;;9.13;;
19087;SDS011;9676;50.916;13.352;2023-09-19T15:15:39;10.60;;;9.60;;
19087;SDS011;9676;50.916;13.352;2023-09-19T15:18:31;10.37;;;9.37;;
19087;SDS011;9676;50.916;13.352;2023-09-19T15:21:21;10.87;;;9.33;;
19087;SDS011;9676;50.916;13.352;2023-09-19T15:24:11;10.50;;;9.43;;
19087;SDS011;9676;50.916;13.352;2023-09-19T15:27:03;10.50;;;9.50;;
19087;SDS011;9676;50.916;13.352;2023-09-19T15:29:53;10.43;;;9.33;;
19087;SDS011;9676;50.916;13.352;2023-09-19T15:32:42;10.40;;;9.40;;
19087;SDS011;9676;50.916;13.352;2023-09-19T15:35:31;10.33;;;9.33;;
19087;SDS011;9676;50.916;13.352;2023-09-19T15:38:24;10.33;;;9.33;;
19087;SDS011;9676;50.916;13.352;2023-09-19T15:41:15;10.67;;;9.57;;
19087;SDS011;9676;50.916;13.352;2023-09-19T15:44:11;10.70;;;9.60;;
19087;SDS011;9676;50.916;13.352;2023-09-19T15:47:03;11.30;;;9.43;;
19087;SDS011;9676;50.916;13.352;2023-09-19T15:49:52;10.60;;;9.50;;
19087;SDS011;9676;50.916;13.352;2023-09-19T15:52:42;10.73;;;9.63;;
19087;SDS011;9676;50.916;13.352;2023-09-19T15:55:31;10.30;;;9.30;;
19087;SDS011;9676;50.916;13.352;2023-09-19T15:58:27;10.73;;;9.63;;
19087;SDS011;9676;50.916;13.352;2023-09-19T16:01:18;15.13;;;9.60;;
19087;SDS011;9676;50.916;13.352;2023-09-19T16:04:08;10.60;;;9.50;;
19087;SDS011;9676;50.916;13.352;2023-09-19T16:06:58;11.40;;;9.87;;
19087;SDS011;9676;50.916;13.352;2023-09-19T16:09:48;12.37;;;9.90;;
19087;SDS011;9676;50.916;13.352;2023-09-19T16:12:38;13.17;;;9.77;;
19087;SDS011;9676;50.916;13.352;2023-09-19T16:15:28;10.43;;;9.43;;
19087;SDS011;9676;50.916;13.352;2023-09-19T16:18:20;11.20;;;10.10;;
19087;SDS011;9676;50.916;13.352;2023-09-19T16:21:13;10.63;;;9.63;;
19087;SDS011;9676;50.916;13.352;2023-09-19T16:24:05;11.23;;;10.13;;
19087;SDS011;9676;50.916;13.352;2023-09-19T16:26:59;10.90;;;9.80;;
19087;SDS011;9676;50.916;13.352;2023-09-19T16:29:49;10.80;;;9.70;;
19087;SDS011;9676;50.916;13.352;2023-09-19T16:32:38;10.93;;;9.93;;
19087;SDS011;9676;50.916;13.352;2023-09-19T16:35:29;13.40;;;10.07;;
19087;SDS011;9676;50.916;13.352;2023-09-19T16:38:18;11.23;;;10.10;;
19087;SDS011;9676;50.916;13.352;2023-09-19T16:41:08;10.70;;;9.70;;
19087;SDS011;9676;50.916;13.352;2023-09-19T16:43:59;11.03;;;9.93;;
19087;SDS011;9676;50.916;13.352;2023-09-19T16:46:48;11.60;;;10.40;;
19087;SDS011;9676;50.916;13.352;2023-09-19T16:49:38;12.13;;;10.57;;
19087;SDS011;9676;50.916;13.352;2023-09-19T16:52:28;12.73;;;10.40;;
19087;SDS011;9676;50.916;13.352;2023-09-19T16:55:18;11.63;;;10.43;;
19087;SDS011;9676;50.916;13.352;2023-09-19T16:58:08;11.60;;;10.40;;
19087;SDS011;9676;50.916;13.352;2023-09-19T17:00:57;12.50;;;10.50;;
19087;SDS011;9676;50.916;13.352;2023-09-19T17:03:47;10.80;;;9.80;;
19087;SDS011;9676;50.916;13.352;2023-09-19T17:06:37;10.70;;;9.70;;
19087;SDS011;9676;50.916;13.352;2023-09-19T17:09:28;11.20;;;10.10;;
19087;SDS011;9676;50.916;13.352;2023-09-19T17:12:17;11.13;;;10.03;;
19087;SDS011;9676;50.916;13.352;2023-09-19T17:15:07;10.60;;;9.50;;
19087;SDS011;9676;50.916;13.352;2023-09-19T17:17:57;10.77;;;9.73;;